sensor_id;sensor_type;location;lat;lon;timestamp;temperature;humidity
53802;DHT22;39709;53.334;6.534;2024-03-07T00:00:06;6.50;99.90
53802;DHT22;39709;53.334;6.534;2024-03-07T00:02:40;6.10;99.90
53802;DHT22;39709;53.334;6.534;2024-03-07T00:05:06;6.10;99.90
53802;DHT22;39709;53.334;6.534;2024-03-07T00:07:33;6.30;99.90
53802;DHT22;39709;53.334;6.534;2024-03-07T00:10:00;6.30;99.90
53802;DHT22;39709;53.334;6.534;2024-03-07T00:12:25;6.20;99.90
53802;DHT22;39709;53.334;6.534;2024-03-07T00:14:52;6.10;99.90
53802;DHT22;39709;53.334;6.534;2024-03-07T00:17:18;6.00;99.90
53802;DHT22;39709;53.334;6.534;2024-03-07T00:19:44;6.00;99.90
53802;DHT22;39709;53.334;6.534;2024-03-07T00:22:10;5.80;99.90
53802;DHT22;39709;53.334;6.534;2024-03-07T00:24:36;5.90;99.90
53802;DHT22;39709;53.334;6.534;2024-03-07T00:27:02;5.80;99.90
53802;DHT22;39709;53.334;6.534;2024-03-07T00:29:28;5.80;99.90
53802;DHT22;39709;53.334;6.534;2024-03-07T00:31:54;5.50;99.90
53802;DHT22;39709;53.334;6.534;2024-03-07T00:34:20;5.60;99.90
53802;DHT22;39709;53.334;6.534;2024-03-07T00:36:48;5.50;99.90
53802;DHT22;39709;53.334;6.534;2024-03-07T00:39:14;5.50;99.90
53802;DHT22;39709;53.334;6.534;2024-03-07T00:41:39;5.40;99.90
53802;DHT22;39709;53.334;6.534;2024-03-07T00:44:05;5.50;99.90
53802;DHT22;39709;53.334;6.534;2024-03-07T00:46:35;5.50;99.90
53802;DHT22;39709;53.334;6.534;2024-03-07T00:49:01;5.40;99.90
53802;DHT22;39709;53.334;6.534;2024-03-07T00:51:27;5.40;99.90
53802;DHT22;39709;53.334;6.534;2024-03-07T00:53:53;5.50;99.90
53802;DHT22;39709;53.334;6.534;2024-03-07T00:56:19;5.40;99.90
53802;DHT22;39709;53.334;6.534;2024-03-07T00:58:47;5.50;99.90
53802;DHT22;39709;53.334;6.534;2024-03-07T01:01:13;5.10;99.90
53802;DHT22;39709;53.334;6.534;2024-03-07T01:03:39;5.40;99.90
53802;DHT22;39709;53.334;6.534;2024-03-07T01:06:05;5.30;99.90
53802;DHT22;39709;53.334;6.534;2024-03-07T01:08:31;5.20;99.90
53802;DHT22;39709;53.334;6.534;2024-03-07T01:10:58;4.80;99.90
53802;DHT22;39709;53.334;6.534;2024-03-07T01:13:23;5.10;99.90
53802;DHT22;39709;53.334;6.534;2024-03-07T01:15:49;4.90;99.90
53802;DHT22;39709;53.334;6.534;2024-03-07T01:18:15;4.90;99.90
53802;DHT22;39709;53.334;6.534;2024-03-07T01:20:42;4.70;99.90
53802;DHT22;39709;53.334;6.534;2024-03-07T01:23:08;4.70;99.90
53802;DHT22;39709;53.334;6.534;2024-03-07T01:25:33;4.60;99.90
53802;DHT22;39709;53.334;6.534;2024-03-07T01:27:59;4.80;99.90
53802;DHT22;39709;53.334;6.534;2024-03-07T01:30:25;4.40;99.90
53802;DHT22;39709;53.334;6.534;2024-03-07T01:32:53;4.60;99.90
53802;DHT22;39709;53.334;6.534;2024-03-07T01:35:19;4.30;99.90
53802;DHT22;39709;53.334;6.534;2024-03-07T01:37:44;4.10;99.90
53802;DHT22;39709;53.334;6.534;2024-03-07T01:40:10;3.90;99.90
53802;DHT22;39709;53.334;6.534;2024-03-07T01:42:36;4.00;99.90
53802;DHT22;39709;53.334;6.534;2024-03-07T01:45:02;3.80;99.90
53802;DHT22;39709;53.334;6.534;2024-03-07T01:47:28;3.70;99.90
53802;DHT22;39709;53.334;6.534;2024-03-07T01:49:53;3.70;99.90
53802;DHT22;39709;53.334;6.534;2024-03-07T01:52:19;3.60;99.90
53802;DHT22;39709;53.334;6.534;2024-03-07T01:54:46;3.60;99.90
53802;DHT22;39709;53.334;6.534;2024-03-07T01:57:12;3.40;99.90
53802;DHT22;39709;53.334;6.534;2024-03-07T01:59:38;3.30;99.90
53802;DHT22;39709;53.334;6.534;2024-03-07T02:02:05;3.30;99.90
53802;DHT22;39709;53.334;6.534;2024-03-07T02:04:30;3.30;99.90
53802;DHT22;39709;53.334;6.534;2024-03-07T02:06:56;3.30;99.90
53802;DHT22;39709;53.334;6.534;2024-03-07T02:09:22;3.30;99.90
53802;DHT22;39709;53.334;6.534;2024-03-07T02:11:48;3.40;99.90
53802;DHT22;39709;53.334;6.534;2024-03-07T02:14:14;3.30;99.90
53802;DHT22;39709;53.334;6.534;2024-03-07T02:16:40;3.30;99.90
53802;DHT22;39709;53.334;6.534;2024-03-07T02:19:05;3.20;99.90
53802;DHT22;39709;53.334;6.534;2024-03-07T02:21:32;3.20;99.90
53802;DHT22;39709;53.334;6.534;2024-03-07T02:23:58;3.10;99.90
53802;DHT22;39709;53.334;6.534;2024-03-07T02:26:23;3.10;99.90
53802;DHT22;39709;53.334;6.534;2024-03-07T02:28:49;3.00;99.90
53802;DHT22;39709;53.334;6.534;2024-03-07T02:31:15;3.00;99.90
53802;DHT22;39709;53.334;6.534;2024-03-07T02:33:40;3.00;99.90
53802;DHT22;39709;53.334;6.534;2024-03-07T02:36:07;3.00;99.90
53802;DHT22;39709;53.334;6.534;2024-03-07T02:38:32;2.90;99.90
53802;DHT22;39709;53.334;6.534;2024-03-07T02:40:58;2.80;99.90
53802;DHT22;39709;53.334;6.534;2024-03-07T02:43:24;2.80;99.90
53802;DHT22;39709;53.334;6.534;2024-03-07T02:45:49;2.70;99.90
53802;DHT22;39709;53.334;6.534;2024-03-07T02:48:15;2.70;99.90
53802;DHT22;39709;53.334;6.534;2024-03-07T02:50:43;2.60;99.90
53802;DHT22;39709;53.334;6.534;2024-03-07T02:53:09;2.50;99.90
53802;DHT22;39709;53.334;6.534;2024-03-07T02:55:34;2.40;99.90
53802;DHT22;39709;53.334;6.534;2024-03-07T02:58:00;2.40;99.90
53802;DHT22;39709;53.334;6.534;2024-03-07T03:00:26;2.40;99.90
53802;DHT22;39709;53.334;6.534;2024-03-07T03:02:55;2.40;99.90
53802;DHT22;39709;53.334;6.534;2024-03-07T03:05:21;2.40;99.90
53802;DHT22;39709;53.334;6.534;2024-03-07T03:07:47;2.60;99.90
53802;DHT22;39709;53.334;6.534;2024-03-07T03:10:24;2.50;99.90
53802;DHT22;39709;53.334;6.534;2024-03-07T03:12:54;2.60;99.90
53802;DHT22;39709;53.334;6.534;2024-03-07T03:15:22;2.50;99.90
53802;DHT22;39709;53.334;6.534;2024-03-07T03:17:47;2.60;99.90
53802;DHT22;39709;53.334;6.534;2024-03-07T03:20:13;2.80;99.90
53802;DHT22;39709;53.334;6.534;2024-03-07T03:22:54;2.70;99.90
53802;DHT22;39709;53.334;6.534;2024-03-07T03:25:20;2.60;99.90
53802;DHT22;39709;53.334;6.534;2024-03-07T03:27:49;2.60;99.90
53802;DHT22;39709;53.334;6.534;2024-03-07T03:30:15;2.60;99.90
53802;DHT22;39709;53.334;6.534;2024-03-07T03:32:47;2.50;99.90
53802;DHT22;39709;53.334;6.534;2024-03-07T03:35:13;2.60;99.90
53802;DHT22;39709;53.334;6.534;2024-03-07T03:37:39;2.70;99.90
53802;DHT22;39709;53.334;6.534;2024-03-07T03:40:05;2.50;99.90
53802;DHT22;39709;53.334;6.534;2024-03-07T03:42:31;2.60;99.90
53802;DHT22;39709;53.334;6.534;2024-03-07T03:44:57;2.40;99.90
53802;DHT22;39709;53.334;6.534;2024-03-07T03:47:22;2.30;99.90
53802;DHT22;39709;53.334;6.534;2024-03-07T03:49:48;2.40;99.90
53802;DHT22;39709;53.334;6.534;2024-03-07T03:52:13;2.30;99.90
53802;DHT22;39709;53.334;6.534;2024-03-07T03:54:39;2.50;99.90
53802;DHT22;39709;53.334;6.534;2024-03-07T03:57:04;2.60;99.90
53802;DHT22;39709;53.334;6.534;2024-03-07T03:59:31;2.50;99.90
53802;DHT22;39709;53.334;6.534;2024-03-07T04:01:56;2.50;99.90
53802;DHT22;39709;53.334;6.534;2024-03-07T04:04:22;2.50;99.90
53802;DHT22;39709;53.334;6.534;2024-03-07T04:06:48;2.50;99.90
53802;DHT22;39709;53.334;6.534;2024-03-07T04:09:13;2.40;99.90
53802;DHT22;39709;53.334;6.534;2024-03-07T04:11:40;2.10;99.90
53802;DHT22;39709;53.334;6.534;2024-03-07T04:14:06;2.00;99.90
53802;DHT22;39709;53.334;6.534;2024-03-07T04:16:32;2.10;99.90
53802;DHT22;39709;53.334;6.534;2024-03-07T04:18:57;2.00;99.90
53802;DHT22;39709;53.334;6.534;2024-03-07T04:21:23;1.90;99.90
53802;DHT22;39709;53.334;6.534;2024-03-07T04:23:51;2.10;99.90
53802;DHT22;39709;53.334;6.534;2024-03-07T04:26:17;2.40;99.90
53802;DHT22;39709;53.334;6.534;2024-03-07T04:28:42;2.30;99.90
53802;DHT22;39709;53.334;6.534;2024-03-07T04:31:08;2.50;99.90
53802;DHT22;39709;53.334;6.534;2024-03-07T04:33:34;2.50;99.90
53802;DHT22;39709;53.334;6.534;2024-03-07T04:35:59;2.30;99.90
53802;DHT22;39709;53.334;6.534;2024-03-07T04:38:27;2.60;99.90
53802;DHT22;39709;53.334;6.534;2024-03-07T04:40:53;2.60;99.90
53802;DHT22;39709;53.334;6.534;2024-03-07T04:43:19;2.30;99.90
53802;DHT22;39709;53.334;6.534;2024-03-07T04:45:46;2.30;99.90
53802;DHT22;39709;53.334;6.534;2024-03-07T04:48:11;2.40;99.90
53802;DHT22;39709;53.334;6.534;2024-03-07T04:50:37;2.40;99.90
53802;DHT22;39709;53.334;6.534;2024-03-07T04:53:03;2.50;99.90
53802;DHT22;39709;53.334;6.534;2024-03-07T04:55:29;2.30;99.90
53802;DHT22;39709;53.334;6.534;2024-03-07T04:57:54;1.90;99.90
53802;DHT22;39709;53.334;6.534;2024-03-07T05:00:20;1.80;99.90
53802;DHT22;39709;53.334;6.534;2024-03-07T05:02:47;1.70;99.90
53802;DHT22;39709;53.334;6.534;2024-03-07T05:05:13;1.60;99.90
53802;DHT22;39709;53.334;6.534;2024-03-07T05:07:39;1.70;99.90
53802;DHT22;39709;53.334;6.534;2024-03-07T05:10:06;1.60;99.90
53802;DHT22;39709;53.334;6.534;2024-03-07T05:12:32;1.60;99.90
53802;DHT22;39709;53.334;6.534;2024-03-07T05:14:58;1.50;99.90
53802;DHT22;39709;53.334;6.534;2024-03-07T05:17:23;1.50;99.90
53802;DHT22;39709;53.334;6.534;2024-03-07T05:19:50;1.40;99.90
53802;DHT22;39709;53.334;6.534;2024-03-07T05:22:15;1.40;99.90
53802;DHT22;39709;53.334;6.534;2024-03-07T05:24:42;1.50;99.90
53802;DHT22;39709;53.334;6.534;2024-03-07T05:27:11;1.40;99.90
53802;DHT22;39709;53.334;6.534;2024-03-07T05:29:37;1.40;99.90
53802;DHT22;39709;53.334;6.534;2024-03-07T05:32:21;1.40;99.90
53802;DHT22;39709;53.334;6.534;2024-03-07T05:34:51;1.30;99.90
53802;DHT22;39709;53.334;6.534;2024-03-07T05:37:16;1.30;99.90
53802;DHT22;39709;53.334;6.534;2024-03-07T05:39:42;1.30;99.90
53802;DHT22;39709;53.334;6.534;2024-03-07T05:42:08;1.30;99.90
53802;DHT22;39709;53.334;6.534;2024-03-07T05:44:33;1.20;99.90
53802;DHT22;39709;53.334;6.534;2024-03-07T05:46:59;1.20;99.90
53802;DHT22;39709;53.334;6.534;2024-03-07T05:49:25;1.10;99.90
53802;DHT22;39709;53.334;6.534;2024-03-07T05:51:50;1.60;99.90
53802;DHT22;39709;53.334;6.534;2024-03-07T05:54:16;1.00;99.90
53802;DHT22;39709;53.334;6.534;2024-03-07T05:56:42;1.00;99.90
53802;DHT22;39709;53.334;6.534;2024-03-07T05:59:08;1.20;99.90
53802;DHT22;39709;53.334;6.534;2024-03-07T06:01:35;1.20;99.90
53802;DHT22;39709;53.334;6.534;2024-03-07T06:04:01;1.10;99.90
53802;DHT22;39709;53.334;6.534;2024-03-07T06:06:26;1.10;99.90
53802;DHT22;39709;53.334;6.534;2024-03-07T06:08:52;1.20;99.90
53802;DHT22;39709;53.334;6.534;2024-03-07T06:11:18;1.50;99.90
53802;DHT22;39709;53.334;6.534;2024-03-07T06:13:49;1.30;99.90
53802;DHT22;39709;53.334;6.534;2024-03-07T06:16:15;1.30;99.90
53802;DHT22;39709;53.334;6.534;2024-03-07T06:18:41;1.30;99.90
53802;DHT22;39709;53.334;6.534;2024-03-07T06:21:07;1.60;99.90
53802;DHT22;39709;53.334;6.534;2024-03-07T06:23:33;1.80;99.90
53802;DHT22;39709;53.334;6.534;2024-03-07T06:25:59;2.00;99.90
53802;DHT22;39709;53.334;6.534;2024-03-07T06:28:26;2.10;99.90
53802;DHT22;39709;53.334;6.534;2024-03-07T06:30:54;2.20;99.90
53802;DHT22;39709;53.334;6.534;2024-03-07T06:33:19;2.40;99.90
53802;DHT22;39709;53.334;6.534;2024-03-07T06:35:46;2.30;99.90
53802;DHT22;39709;53.334;6.534;2024-03-07T06:38:11;2.40;99.90
53802;DHT22;39709;53.334;6.534;2024-03-07T06:40:38;2.50;99.90
53802;DHT22;39709;53.334;6.534;2024-03-07T06:43:05;2.60;99.90
53802;DHT22;39709;53.334;6.534;2024-03-07T06:45:35;2.70;99.90
53802;DHT22;39709;53.334;6.534;2024-03-07T06:48:03;2.60;99.90
53802;DHT22;39709;53.334;6.534;2024-03-07T06:50:28;2.60;99.90
53802;DHT22;39709;53.334;6.534;2024-03-07T06:52:54;2.30;99.90
53802;DHT22;39709;53.334;6.534;2024-03-07T06:55:20;2.40;99.90
53802;DHT22;39709;53.334;6.534;2024-03-07T06:57:45;2.60;99.90
53802;DHT22;39709;53.334;6.534;2024-03-07T07:00:11;2.30;99.90
53802;DHT22;39709;53.334;6.534;2024-03-07T07:02:38;1.90;99.90
53802;DHT22;39709;53.334;6.534;2024-03-07T07:05:04;2.10;99.90
53802;DHT22;39709;53.334;6.534;2024-03-07T07:07:36;2.10;99.90
53802;DHT22;39709;53.334;6.534;2024-03-07T07:10:02;2.30;99.90
53802;DHT22;39709;53.334;6.534;2024-03-07T07:12:28;2.80;99.90
53802;DHT22;39709;53.334;6.534;2024-03-07T07:14:55;2.50;99.90
53802;DHT22;39709;53.334;6.534;2024-03-07T07:17:20;2.70;99.90
53802;DHT22;39709;53.334;6.534;2024-03-07T07:19:46;2.70;99.90
53802;DHT22;39709;53.334;6.534;2024-03-07T07:22:11;2.90;99.90
53802;DHT22;39709;53.334;6.534;2024-03-07T07:24:38;3.10;99.90
53802;DHT22;39709;53.334;6.534;2024-03-07T07:27:03;3.00;99.90
53802;DHT22;39709;53.334;6.534;2024-03-07T07:29:29;2.90;99.90
53802;DHT22;39709;53.334;6.534;2024-03-07T07:31:55;2.70;99.90
53802;DHT22;39709;53.334;6.534;2024-03-07T07:34:20;2.80;99.90
53802;DHT22;39709;53.334;6.534;2024-03-07T07:36:46;3.10;99.90
53802;DHT22;39709;53.334;6.534;2024-03-07T07:39:11;3.20;99.90
53802;DHT22;39709;53.334;6.534;2024-03-07T07:41:42;3.10;99.90
53802;DHT22;39709;53.334;6.534;2024-03-07T07:44:08;3.30;99.90
53802;DHT22;39709;53.334;6.534;2024-03-07T07:46:33;3.30;99.90
53802;DHT22;39709;53.334;6.534;2024-03-07T07:49:00;3.40;99.90
53802;DHT22;39709;53.334;6.534;2024-03-07T07:51:25;3.10;99.90
53802;DHT22;39709;53.334;6.534;2024-03-07T07:53:52;3.20;99.90
53802;DHT22;39709;53.334;6.534;2024-03-07T07:56:19;3.00;99.90
53802;DHT22;39709;53.334;6.534;2024-03-07T07:58:45;3.10;99.90
53802;DHT22;39709;53.334;6.534;2024-03-07T08:01:11;2.90;99.90
53802;DHT22;39709;53.334;6.534;2024-03-07T08:03:36;2.70;99.90
53802;DHT22;39709;53.334;6.534;2024-03-07T08:06:03;2.60;99.90
53802;DHT22;39709;53.334;6.534;2024-03-07T08:08:29;2.80;99.90
53802;DHT22;39709;53.334;6.534;2024-03-07T08:10:54;2.60;99.90
53802;DHT22;39709;53.334;6.534;2024-03-07T08:13:20;2.90;99.90
53802;DHT22;39709;53.334;6.534;2024-03-07T08:15:45;2.40;99.90
53802;DHT22;39709;53.334;6.534;2024-03-07T08:18:11;2.70;99.90
53802;DHT22;39709;53.334;6.534;2024-03-07T08:20:37;2.30;99.90
53802;DHT22;39709;53.334;6.534;2024-03-07T08:23:04;2.70;99.90
53802;DHT22;39709;53.334;6.534;2024-03-07T08:25:29;2.40;99.90
53802;DHT22;39709;53.334;6.534;2024-03-07T08:27:55;2.80;99.90
53802;DHT22;39709;53.334;6.534;2024-03-07T08:30:22;2.90;99.90
53802;DHT22;39709;53.334;6.534;2024-03-07T08:32:52;2.70;99.90
53802;DHT22;39709;53.334;6.534;2024-03-07T08:35:17;3.00;99.90
53802;DHT22;39709;53.334;6.534;2024-03-07T08:37:45;2.70;99.90
53802;DHT22;39709;53.334;6.534;2024-03-07T08:40:11;2.30;99.90
53802;DHT22;39709;53.334;6.534;2024-03-07T08:42:38;2.60;99.90
53802;DHT22;39709;53.334;6.534;2024-03-07T08:45:04;2.90;99.90
53802;DHT22;39709;53.334;6.534;2024-03-07T08:47:34;3.00;99.90
53802;DHT22;39709;53.334;6.534;2024-03-07T08:49:59;2.80;99.90
53802;DHT22;39709;53.334;6.534;2024-03-07T08:52:25;2.70;99.90
53802;DHT22;39709;53.334;6.534;2024-03-07T08:54:51;3.00;99.90
53802;DHT22;39709;53.334;6.534;2024-03-07T08:57:17;2.70;99.90
53802;DHT22;39709;53.334;6.534;2024-03-07T08:59:43;2.80;99.90
53802;DHT22;39709;53.334;6.534;2024-03-07T09:02:09;3.30;99.90
53802;DHT22;39709;53.334;6.534;2024-03-07T09:04:35;3.10;99.90
53802;DHT22;39709;53.334;6.534;2024-03-07T09:07:01;3.20;99.90
53802;DHT22;39709;53.334;6.534;2024-03-07T09:09:27;3.20;99.90
53802;DHT22;39709;53.334;6.534;2024-03-07T09:11:52;3.20;99.90
53802;DHT22;39709;53.334;6.534;2024-03-07T09:14:18;3.30;99.90
53802;DHT22;39709;53.334;6.534;2024-03-07T09:16:43;2.70;99.90
53802;DHT22;39709;53.334;6.534;2024-03-07T09:19:10;2.80;99.90
53802;DHT22;39709;53.334;6.534;2024-03-07T09:21:39;2.90;99.90
53802;DHT22;39709;53.334;6.534;2024-03-07T09:24:06;2.80;99.90
53802;DHT22;39709;53.334;6.534;2024-03-07T09:26:32;3.20;99.90
53802;DHT22;39709;53.334;6.534;2024-03-07T09:28:59;3.20;99.90
53802;DHT22;39709;53.334;6.534;2024-03-07T09:31:26;3.40;99.90
53802;DHT22;39709;53.334;6.534;2024-03-07T09:33:52;3.30;99.90
53802;DHT22;39709;53.334;6.534;2024-03-07T09:36:19;3.00;99.90
53802;DHT22;39709;53.334;6.534;2024-03-07T09:38:45;3.50;99.90
53802;DHT22;39709;53.334;6.534;2024-03-07T09:41:10;3.00;99.90
53802;DHT22;39709;53.334;6.534;2024-03-07T09:43:36;3.20;99.90
53802;DHT22;39709;53.334;6.534;2024-03-07T09:46:04;3.60;99.90
53802;DHT22;39709;53.334;6.534;2024-03-07T09:48:31;3.50;99.90
53802;DHT22;39709;53.334;6.534;2024-03-07T09:50:56;3.40;99.90
53802;DHT22;39709;53.334;6.534;2024-03-07T09:53:23;3.60;99.90
53802;DHT22;39709;53.334;6.534;2024-03-07T09:55:52;3.60;99.90
53802;DHT22;39709;53.334;6.534;2024-03-07T09:58:17;3.60;99.90
53802;DHT22;39709;53.334;6.534;2024-03-07T10:00:45;3.70;99.90
53802;DHT22;39709;53.334;6.534;2024-03-07T10:03:12;3.30;99.90
53802;DHT22;39709;53.334;6.534;2024-03-07T10:05:40;3.60;99.90
53802;DHT22;39709;53.334;6.534;2024-03-07T10:08:06;3.60;99.90
53802;DHT22;39709;53.334;6.534;2024-03-07T10:10:32;3.80;99.90
53802;DHT22;39709;53.334;6.534;2024-03-07T10:12:59;3.90;99.90
53802;DHT22;39709;53.334;6.534;2024-03-07T10:15:31;3.50;99.90
53802;DHT22;39709;53.334;6.534;2024-03-07T10:17:57;3.40;99.90
53802;DHT22;39709;53.334;6.534;2024-03-07T10:20:24;3.80;99.90
53802;DHT22;39709;53.334;6.534;2024-03-07T10:22:50;3.60;99.90
53802;DHT22;39709;53.334;6.534;2024-03-07T10:25:20;3.80;99.90
53802;DHT22;39709;53.334;6.534;2024-03-07T10:27:50;4.10;99.90
53802;DHT22;39709;53.334;6.534;2024-03-07T10:30:16;3.70;99.90
53802;DHT22;39709;53.334;6.534;2024-03-07T10:32:56;3.60;99.90
53802;DHT22;39709;53.334;6.534;2024-03-07T10:35:22;3.70;99.90
53802;DHT22;39709;53.334;6.534;2024-03-07T10:37:50;3.90;99.90
53802;DHT22;39709;53.334;6.534;2024-03-07T10:40:16;3.70;99.90
53802;DHT22;39709;53.334;6.534;2024-03-07T10:42:46;3.90;99.90
53802;DHT22;39709;53.334;6.534;2024-03-07T10:45:18;4.10;99.90
53802;DHT22;39709;53.334;6.534;2024-03-07T10:47:45;4.00;99.90
53802;DHT22;39709;53.334;6.534;2024-03-07T10:52:44;3.90;99.90
53802;DHT22;39709;53.334;6.534;2024-03-07T10:57:46;3.30;99.90
53802;DHT22;39709;53.334;6.534;2024-03-07T11:00:14;3.30;99.90
53802;DHT22;39709;53.334;6.534;2024-03-07T11:02:57;3.80;99.90
53802;DHT22;39709;53.334;6.534;2024-03-07T11:05:26;3.70;99.90
53802;DHT22;39709;53.334;6.534;2024-03-07T11:07:58;3.60;99.90
53802;DHT22;39709;53.334;6.534;2024-03-07T11:10:24;3.60;99.90
53802;DHT22;39709;53.334;6.534;2024-03-07T11:12:50;3.80;99.90
53802;DHT22;39709;53.334;6.534;2024-03-07T11:15:17;3.90;99.90
53802;DHT22;39709;53.334;6.534;2024-03-07T11:17:46;3.40;99.90
53802;DHT22;39709;53.334;6.534;2024-03-07T11:20:19;3.60;99.90
53802;DHT22;39709;53.334;6.534;2024-03-07T11:22:46;3.60;99.90
53802;DHT22;39709;53.334;6.534;2024-03-07T11:25:11;3.60;99.90
53802;DHT22;39709;53.334;6.534;2024-03-07T11:27:39;4.10;99.90
53802;DHT22;39709;53.334;6.534;2024-03-07T11:30:05;4.30;99.90
53802;DHT22;39709;53.334;6.534;2024-03-07T11:32:37;3.70;99.90
53802;DHT22;39709;53.334;6.534;2024-03-07T11:35:04;3.50;99.90
53802;DHT22;39709;53.334;6.534;2024-03-07T11:37:45;4.00;99.90
53802;DHT22;39709;53.334;6.534;2024-03-07T11:40:59;4.10;99.90
53802;DHT22;39709;53.334;6.534;2024-03-07T11:43:00;4.70;99.90
53802;DHT22;39709;53.334;6.534;2024-03-07T11:45:30;4.80;99.90
53802;DHT22;39709;53.334;6.534;2024-03-07T11:47:59;4.90;99.90
53802;DHT22;39709;53.334;6.534;2024-03-07T11:50:35;4.90;99.90
53802;DHT22;39709;53.334;6.534;2024-03-07T11:53:02;5.20;99.90
53802;DHT22;39709;53.334;6.534;2024-03-07T11:55:31;5.20;99.90
53802;DHT22;39709;53.334;6.534;2024-03-07T11:58:17;5.20;99.90
53802;DHT22;39709;53.334;6.534;2024-03-07T12:00:43;5.60;99.90
53802;DHT22;39709;53.334;6.534;2024-03-07T12:03:12;5.20;99.90
53802;DHT22;39709;53.334;6.534;2024-03-07T12:05:39;5.70;99.90
53802;DHT22;39709;53.334;6.534;2024-03-07T12:08:05;5.50;99.90
53802;DHT22;39709;53.334;6.534;2024-03-07T12:10:31;5.40;99.90
53802;DHT22;39709;53.334;6.534;2024-03-07T12:12:57;5.40;99.90
53802;DHT22;39709;53.334;6.534;2024-03-07T12:15:23;5.40;99.90
53802;DHT22;39709;53.334;6.534;2024-03-07T12:17:49;5.50;99.90
53802;DHT22;39709;53.334;6.534;2024-03-07T12:20:18;5.60;99.90
53802;DHT22;39709;53.334;6.534;2024-03-07T12:22:50;6.00;99.90
53802;DHT22;39709;53.334;6.534;2024-03-07T12:25:18;5.80;99.90
53802;DHT22;39709;53.334;6.534;2024-03-07T12:28:32;5.90;99.90
53802;DHT22;39709;53.334;6.534;2024-03-07T12:33:11;5.80;99.90
53802;DHT22;39709;53.334;6.534;2024-03-07T12:35:39;5.90;99.90
53802;DHT22;39709;53.334;6.534;2024-03-07T12:38:08;6.10;99.90
53802;DHT22;39709;53.334;6.534;2024-03-07T12:40:36;6.00;99.90
53802;DHT22;39709;53.334;6.534;2024-03-07T12:43:12;5.90;99.90
53802;DHT22;39709;53.334;6.534;2024-03-07T12:45:42;5.90;99.90
53802;DHT22;39709;53.334;6.534;2024-03-07T12:48:09;5.90;99.90
53802;DHT22;39709;53.334;6.534;2024-03-07T12:50:40;5.50;99.90
53802;DHT22;39709;53.334;6.534;2024-03-07T12:53:06;5.90;99.90
53802;DHT22;39709;53.334;6.534;2024-03-07T12:55:38;5.60;99.90
53802;DHT22;39709;53.334;6.534;2024-03-07T12:58:10;5.90;99.90
53802;DHT22;39709;53.334;6.534;2024-03-07T13:00:38;6.10;99.90
53802;DHT22;39709;53.334;6.534;2024-03-07T13:03:06;6.00;99.90
53802;DHT22;39709;53.334;6.534;2024-03-07T13:05:32;6.10;99.90
53802;DHT22;39709;53.334;6.534;2024-03-07T13:07:58;6.20;99.90
53802;DHT22;39709;53.334;6.534;2024-03-07T13:10:23;6.40;99.90
53802;DHT22;39709;53.334;6.534;2024-03-07T13:12:49;6.50;99.90
53802;DHT22;39709;53.334;6.534;2024-03-07T13:15:15;6.20;99.90
53802;DHT22;39709;53.334;6.534;2024-03-07T13:17:41;6.30;99.90
53802;DHT22;39709;53.334;6.534;2024-03-07T13:20:13;6.50;99.90
53802;DHT22;39709;53.334;6.534;2024-03-07T13:22:43;6.40;99.90
53802;DHT22;39709;53.334;6.534;2024-03-07T13:25:24;6.20;99.90
53802;DHT22;39709;53.334;6.534;2024-03-07T13:27:52;6.20;99.90
53802;DHT22;39709;53.334;6.534;2024-03-07T13:30:20;6.50;99.90
53802;DHT22;39709;53.334;6.534;2024-03-07T13:32:49;6.30;99.90
53802;DHT22;39709;53.334;6.534;2024-03-07T13:35:15;6.50;99.90
53802;DHT22;39709;53.334;6.534;2024-03-07T13:37:41;6.50;99.90
53802;DHT22;39709;53.334;6.534;2024-03-07T13:40:07;6.70;99.90
53802;DHT22;39709;53.334;6.534;2024-03-07T13:45:20;6.70;99.90
53802;DHT22;39709;53.334;6.534;2024-03-07T13:47:46;6.60;99.90
53802;DHT22;39709;53.334;6.534;2024-03-07T13:50:16;6.90;99.90
53802;DHT22;39709;53.334;6.534;2024-03-07T13:52:45;6.80;99.90
53802;DHT22;39709;53.334;6.534;2024-03-07T13:58:06;8.20;99.90
53802;DHT22;39709;53.334;6.534;2024-03-07T14:00:57;7.10;99.90
53802;DHT22;39709;53.334;6.534;2024-03-07T14:24:31;6.80;99.90
53802;DHT22;39709;53.334;6.534;2024-03-07T14:27:18;6.90;99.90
53802;DHT22;39709;53.334;6.534;2024-03-07T14:32:13;7.10;99.90
53802;DHT22;39709;53.334;6.534;2024-03-07T14:34:49;6.90;99.90
53802;DHT22;39709;53.334;6.534;2024-03-07T14:37:24;6.90;99.90
53802;DHT22;39709;53.334;6.534;2024-03-07T14:39:52;6.80;99.90
53802;DHT22;39709;53.334;6.534;2024-03-07T14:42:18;7.00;99.90
53802;DHT22;39709;53.334;6.534;2024-03-07T14:44:45;7.00;99.90
53802;DHT22;39709;53.334;6.534;2024-03-07T14:47:13;7.00;99.90
53802;DHT22;39709;53.334;6.534;2024-03-07T14:49:41;6.70;99.90
53802;DHT22;39709;53.334;6.534;2024-03-07T14:52:07;6.90;99.90
53802;DHT22;39709;53.334;6.534;2024-03-07T14:54:42;6.50;99.90
53802;DHT22;39709;53.334;6.534;2024-03-07T14:57:08;6.60;99.90
53802;DHT22;39709;53.334;6.534;2024-03-07T14:59:36;6.60;99.90
53802;DHT22;39709;53.334;6.534;2024-03-07T15:02:02;6.60;99.90
53802;DHT22;39709;53.334;6.534;2024-03-07T15:04:29;6.70;99.90
53802;DHT22;39709;53.334;6.534;2024-03-07T15:06:57;6.90;99.90
53802;DHT22;39709;53.334;6.534;2024-03-07T15:09:23;6.80;99.90
53802;DHT22;39709;53.334;6.534;2024-03-07T15:11:48;6.40;99.90
53802;DHT22;39709;53.334;6.534;2024-03-07T15:14:14;6.70;99.90
53802;DHT22;39709;53.334;6.534;2024-03-07T15:16:41;6.50;99.90
53802;DHT22;39709;53.334;6.534;2024-03-07T15:19:07;6.00;99.90
53802;DHT22;39709;53.334;6.534;2024-03-07T15:21:33;6.10;99.90
53802;DHT22;39709;53.334;6.534;2024-03-07T15:23:59;6.00;99.90
53802;DHT22;39709;53.334;6.534;2024-03-07T15:26:25;6.40;99.90
53802;DHT22;39709;53.334;6.534;2024-03-07T15:28:52;6.10;99.90
53802;DHT22;39709;53.334;6.534;2024-03-07T15:31:17;6.40;99.90
53802;DHT22;39709;53.334;6.534;2024-03-07T15:33:45;6.70;99.90
53802;DHT22;39709;53.334;6.534;2024-03-07T15:36:12;6.30;99.90
53802;DHT22;39709;53.334;6.534;2024-03-07T15:38:37;6.60;99.90
53802;DHT22;39709;53.334;6.534;2024-03-07T15:41:04;6.20;99.90
53802;DHT22;39709;53.334;6.534;2024-03-07T15:43:30;6.50;99.90
53802;DHT22;39709;53.334;6.534;2024-03-07T15:45:55;6.60;99.90
53802;DHT22;39709;53.334;6.534;2024-03-07T15:48:22;6.50;99.90
53802;DHT22;39709;53.334;6.534;2024-03-07T15:50:52;6.70;99.90
53802;DHT22;39709;53.334;6.534;2024-03-07T15:53:18;6.40;99.90
53802;DHT22;39709;53.334;6.534;2024-03-07T15:55:44;6.50;99.90
53802;DHT22;39709;53.334;6.534;2024-03-07T15:58:10;6.60;99.90
53802;DHT22;39709;53.334;6.534;2024-03-07T16:00:36;6.70;99.90
53802;DHT22;39709;53.334;6.534;2024-03-07T16:03:06;6.30;99.90
53802;DHT22;39709;53.334;6.534;2024-03-07T16:05:38;6.40;99.90
53802;DHT22;39709;53.334;6.534;2024-03-07T16:08:05;6.40;99.90
53802;DHT22;39709;53.334;6.534;2024-03-07T16:10:32;6.00;99.90
53802;DHT22;39709;53.334;6.534;2024-03-07T16:13:01;6.00;99.90
53802;DHT22;39709;53.334;6.534;2024-03-07T16:15:27;6.10;99.90
53802;DHT22;39709;53.334;6.534;2024-03-07T16:17:54;6.20;99.90
53802;DHT22;39709;53.334;6.534;2024-03-07T16:20:22;6.50;99.90